John H Macmillan Jr — WDB9907 — position and weather

sailwx.info

Track history (hours):
 
Tides and Currents Weather Stations Pressure Air Temp Water Temp Dewpoint Dewpoint Depression Visibility Wind Speed Wind Dir Waves Ship Positions

John H Macmillan Jr

Owner: American River Transportation Company, St Louis, MO. More information available from US FCC via Universal Licensing System and Coast Guard Vessel Documentation Center.

Last reported at 2017-Nov-19 23:47 UTC. Time now 2018-Jan-22 14:27 UTC.
Position N 31°59' W 091°06'.
Warning: this ship's position is months out of date.

Length 55 m; draft 3.5 m.

Type: Ship (hazmat cat B). MMSI: 366984920.

Date/timePositionNaut miles runAvg speedWind from/ knotsBaromVisibWave heightAir tempDewpointWater temp
2017-Nov-19 23:47N 31°59' W 091°06'7 7.2
2017-Nov-19 22:48N 32°06' W 091°06'1 4.4
2017-Nov-19 22:30N 32°08' W 091°06'3 6.2
2017-Nov-19 22:00N 32°07' W 091°03'3 5.9
2017-Nov-19 21:30N 32°09' W 091°00'3 7.0
2017-Nov-19 21:00N 32°13' W 090°59'4 8.0
2017-Nov-19 20:30N 32°16' W 090°57'4 7.2
2017-Nov-19 20:00N 32°19' W 090°54'3 6.0
2017-Nov-19 19:30N 32°21' W 090°57'3 6.4
2017-Nov-19 19:00N 32°23' W 090°60'3 6.7
2017-Nov-19 18:30N 32°26' W 091°02'4 8.3
2017-Nov-19 18:00N 32°28' W 091°06'6 8.5
2017-Nov-19 17:21N 32°33' W 091°06'3 8.5
2017-Nov-19 17:00N 32°36' W 091°08'  
Track history (hours):
 
Tides and Currents Weather Stations Pressure Air Temp Water Temp Dewpoint Dewpoint Depression Visibility Wind Speed Wind Dir Waves Ship Positions

John H Macmillan Jr

Owner: American River Transportation Company, St Louis, MO. More information available from US FCC via Universal Licensing System and Coast Guard Vessel Documentation Center.

Last reported at 2017-Nov-19 23:47 UTC. Time now 2018-Jan-22 14:27 UTC.
Position N 31°59' W 091°06'.
Warning: this ship's position is months out of date.

Length 55 m; draft 3.5 m.

Type: Ship (hazmat cat B). MMSI: 366984920.

Date/timePositionNaut miles runAvg speedWind from/ knotsBaromVisibWave heightAir tempDewpointWater temp
2017-Nov-19 23:47N 31°59' W 091°06'7 7.2
2017-Nov-19 22:48N 32°06' W 091°06'1 4.4
2017-Nov-19 22:30N 32°08' W 091°06'3 6.2
2017-Nov-19 22:00N 32°07' W 091°03'3 5.9
2017-Nov-19 21:30N 32°09' W 091°00'3 7.0
2017-Nov-19 21:00N 32°13' W 090°59'4 8.0
2017-Nov-19 20:30N 32°16' W 090°57'4 7.2
2017-Nov-19 20:00N 32°19' W 090°54'3 6.0
2017-Nov-19 19:30N 32°21' W 090°57'3 6.4
2017-Nov-19 19:00N 32°23' W 090°60'3 6.7
2017-Nov-19 18:30N 32°26' W 091°02'4 8.3
2017-Nov-19 18:00N 32°28' W 091°06'6 8.5
2017-Nov-19 17:21N 32°33' W 091°06'3 8.5
2017-Nov-19 17:00N 32°36' W 091°08'  

Dump ship's entire track history